Latest Weather Observations for Hobart

IDT60801

Issued at 10:51 am EST Tuesday 16 August 2022 (issued every 10 minutes, with the page automatically refreshed every 10 minutes)

About weather observations | Map of weather stations | Latest weather observations for TAS | Other Formats
Station Details ID: 094029 Name: HOBART (ELLERSLIE ROAD) Lat: -42.89 Lon: 147.33 Height: 50.5 m
Data from the previous 72 hours. | See also: Recent months at Hobart
Date/Time
EST
Temp
°C
App
Temp
°C
Dew
Point
°C
Rel
Hum
%
Delta-T
°C
Wind Press
QNH
hPa
Press
MSL
hPa
Rain since
9am
mm
Dir  Spd
km/h
Gust
km/h
Spd
kts
Gust
kts
16/10:30am 13.8 12.3 9.0 73 2.4 ENE 7 11 4 6 1005.7 1005.8 0.2
16/10:00am 12.3 10.4 9.0 80 1.7 N 9 11 5 6 1005.6 1005.7 0.2
16/09:30am 10.5 9.3 8.1 85 1.2 N 4 9 2 5 1005.4 1005.5 0.2
16/09:00am 10.7 9.1 7.8 82 1.4 N 6 9 3 5 1005.1 1005.2 9.6
16/08:30am 10.2 7.9 7.3 82 1.4 N 9 13 5 7 1004.4 1004.5 9.6
16/08:00am 9.8 7.1 7.2 84 1.2 NNW 11 17 6 9 1003.8 1003.9 9.6
16/07:30am 9.7 7.7 7.3 85 1.1 N 7 11 4 6 1003.2 1003.3 9.6
16/07:00am 9.6 7.2 7.0 84 1.2 NNW 9 13 5 7 1002.6 1002.7 9.6
16/06:30am 9.5 6.3 6.9 84 1.2 NW 13 17 7 9 1002.2 1002.3 9.6
16/06:00am 9.4 7.6 7.0 85 1.1 NE 6 9 3 5 1001.5 1001.6 9.6
16/05:30am 9.8 7.3 6.7 81 1.5 SW 9 15 5 8 1001.0 1001.1 9.6
16/05:00am 9.6 9.0 7.2 85 1.1 CALM 0 0 0 0 1000.6 1000.7 9.6
16/04:30am 9.5 7.1 7.1 85 1.1 W 9 24 5 13 1000.1 1000.2 9.6
16/04:00am 8.6 7.1 6.6 87 0.9 NW 4 9 2 5 999.7 999.8 9.6
16/03:30am 8.8 7.4 7.1 89 0.8 NW 4 9 2 5 999.3 999.4 9.6
16/03:00am 9.1 6.4 7.4 89 0.8 NW 11 13 6 7 999.0 999.1 9.6
16/02:30am 8.9 6.7 7.7 92 0.6 NW 9 17 5 9 998.9 999.0 9.6
16/02:00am 9.0 8.4 7.3 89 0.8 CALM 0 6 0 3 998.9 999.0 9.6
16/01:30am 9.5 7.7 7.9 90 0.8 NW 7 11 4 6 998.9 999.0 9.6
16/01:00am 9.5 7.7 8.1 91 0.7 NW 7 13 4 7 998.9 999.0 9.6
16/12:30am 9.5 7.8 8.3 92 0.6 N 7 11 4 6 998.7 998.8 9.6
16/12:00am 9.3 7.7 7.9 91 0.7 NE 6 7 3 4 998.5 998.6 9.6
 
Date/Time
EST
Temp
°C
App
Temp
°C
Dew
Point
°C
Rel
Hum
%
Delta-T
°C
Wind Press
QNH
hPa
Press
MSL
hPa
Rain since
9am
mm
Dir  Spd
km/h
Gust
km/h
Spd
kts
Gust
kts
15/11:30pm 9.1 8.5 7.2 88 0.9 CALM 0 4 0 2 998.4 998.5 9.6
15/11:00pm 9.7 6.9 7.1 84 1.2 WNW 11 15 6 8 998.3 998.4 9.6
15/10:30pm 10.3 7.5 7.0 80 1.6 WSW 11 17 6 9 998.1 998.2 9.6
15/10:00pm 10.3 8.0 7.5 83 1.4 WSW 9 20 5 11 998.0 998.1 9.6
15/09:30pm 10.5 8.4 8.3 86 1.1 SW 9 17 5 9 997.8 997.9 9.6
15/09:00pm 10.4 6.8 8.3 87 1.0 SW 17 26 9 14 997.7 997.8 9.6
15/08:30pm 10.6 7.0 8.4 86 1.1 SW 17 24 9 13 997.8 997.9 9.6
15/08:00pm 10.7 8.0 8.8 88 0.9 SSW 13 20 7 11 997.7 997.8 9.6
15/07:30pm 10.8 8.1 9.1 89 0.8 SSW 13 24 7 13 997.5 997.6 9.6
15/07:00pm 10.9 8.7 9.2 89 0.9 S 11 17 6 9 997.3 997.4 9.6
15/06:30pm 11.0 7.6 9.3 89 0.9 SSW 17 24 9 13 997.1 997.2 9.6
15/06:00pm 11.0 8.0 9.3 89 0.9 SSW 15 22 8 12 996.8 996.9 9.6
15/05:30pm 11.1 9.3 9.4 89 0.9 S 9 15 5 8 996.6 996.7 9.6
15/05:00pm 11.3 9.5 9.4 88 1.0 S 9 13 5 7 996.3 996.4 9.6
15/04:30pm 11.2 9.1 9.8 91 0.7 SE 11 15 6 8 996.4 996.5 9.6
15/04:00pm 11.5 7.8 9.4 87 1.1 SSE 19 24 10 13 996.3 996.4 9.6
15/03:30pm 11.9 8.0 9.6 86 1.2 SSE 20 30 11 16 996.2 996.2 9.6
15/03:00pm 12.4 9.8 9.4 82 1.5 S 13 19 7 10 996.2 996.2 9.6
15/02:30pm 12.7 9.1 9.9 83 1.4 SSW 19 26 10 14 996.1 996.1 9.6
15/02:00pm 12.8 10.2 9.3 79 1.8 SSE 13 19 7 10 996.1 996.1 9.6
15/01:30pm 11.9 10.3 10.1 89 0.9 S 9 11 5 6 996.4 996.5 9.6
15/01:00pm 11.4 10.7 10.1 92 0.7 N 4 11 2 6 996.9 997.0 9.6
15/12:30pm 11.2 9.5 10.0 92 0.6 ESE 9 13 5 7 997.3 997.4 9.4
15/12:00pm 11.4 7.7 9.3 87 1.1 SE 19 30 10 16 997.7 997.8 8.8
15/11:30am 12.4 10.1 10.6 89 0.9 SSW 13 19 7 10 997.7 997.8 8.8
15/11:00am 11.6 10.0 10.2 91 0.7 SW 9 11 5 6 998.2 998.3 8.8
15/10:30am 10.8 8.7 9.7 93 0.6 S 11 15 6 8 998.5 998.6 8.6
15/10:00am 11.1 8.3 9.9 92 0.6 SSE 15 20 8 11 998.9 999.0 5.0
15/09:30am 11.1 7.8 9.7 91 0.7 SSE 17 30 9 16 999.0 999.1 1.8
15/09:00am 11.2 8.5 9.1 87 1.1 SSW 13 19 7 10 999.2 999.3 7.6
15/08:30am 11.5 8.5 9.4 87 1.1 SSW 15 22 8 12 999.0 999.1 7.6
15/08:00am 10.9 8.7 9.5 91 0.7 SSW 11 17 6 9 999.4 999.5 7.6
15/07:30am 10.5 8.1 8.6 88 0.9 SSW 11 13 6 7 999.4 999.5 7.4
15/07:00am 10.7 8.7 8.8 88 0.9 S 9 17 5 9 999.6 999.7 7.4
15/06:30am 10.8 9.2 8.9 88 0.9 SW 7 9 4 5 999.7 999.8 7.4
15/06:00am 10.9 9.4 9.0 88 1.0 SSE 7 15 4 8 999.9 1000.0 7.2
15/05:30am 10.6 8.8 9.4 92 0.6 S 9 15 5 8 999.9 1000.0 7.2
15/05:00am 10.3 8.5 9.5 95 0.4 SW 9 11 5 6 1000.0 1000.1 7.2
15/04:30am 10.5 8.0 9.6 94 0.5 ESE 13 19 7 10 1000.0 1000.1 7.0
15/04:00am 11.1 9.1 8.8 86 1.1 SE 9 13 5 7 1000.0 1000.1 5.8
15/03:30am 11.1 9.1 8.7 85 1.2 SSW 9 11 5 6 1000.0 1000.1 5.8
15/03:00am 11.5 9.1 8.5 82 1.5 SE 11 15 6 8 1000.4 1000.5 5.8
15/02:30am 11.5 9.0 8.4 81 1.5 ESE 11 15 6 8 1000.7 1000.8 5.8
15/02:00am 11.4 8.2 8.6 83 1.4 ESE 15 24 8 13 1000.9 1001.0 5.6
15/01:30am 11.5 7.7 8.9 84 1.3 ESE 19 26 10 14 1000.9 1001.0 5.6
15/01:00am 11.3 7.9 9.2 87 1.1 E 17 24 9 13 1001.0 1001.1 5.6
15/12:30am 11.3 6.9 9.0 86 1.1 E 22 30 12 16 1001.2 1001.3 5.6
15/12:00am 11.8 7.7 8.8 82 1.5 E 20 30 11 16 1001.3 1001.4 5.6
 
Date/Time
EST
Temp
°C
App
Temp
°C
Dew
Point
°C
Rel
Hum
%
Delta-T
°C
Wind Press
QNH
hPa
Press
MSL
hPa
Rain since
9am
mm
Dir  Spd
km/h
Gust
km/h
Spd
kts
Gust
kts
14/11:30pm 11.4 7.5 9.3 87 1.1 ESE 20 32 11 17 1001.3 1001.4 5.6
14/11:00pm 11.1 7.2 9.4 89 0.9 ESE 20 26 11 14 1001.3 1001.4 5.4
14/10:30pm 11.4 7.0 9.0 85 1.2 ESE 22 35 12 19 1001.6 1001.7 5.0
14/10:00pm 12.1 7.3 8.9 81 1.6 ESE 24 35 13 19 1001.5 1001.6 4.6
14/09:30pm 11.9 7.9 9.1 83 1.4 ESE 20 33 11 18 1001.5 1001.6 4.6
14/09:00pm 11.6 7.8 9.0 84 1.3 SE 19 26 10 14 1001.5 1001.6 4.6
14/08:30pm 11.8 7.9 9.4 85 1.2 ESE 20 41 11 22 1001.5 1001.6 4.6
14/08:00pm 11.7 7.8 9.4 86 1.2 ESE 20 28 11 15 1001.3 1001.4 4.6
14/07:30pm 12.1 7.4 9.1 82 1.5 ESE 24 33 13 18 1001.3 1001.4 4.6
14/07:00pm 12.3 9.0 9.5 83 1.4 SSE 17 24 9 13 1001.2 1001.3 4.2
14/06:30pm 12.4 9.2 9.8 84 1.3 SE 17 26 9 14 1001.1 1001.2 4.2
14/06:00pm 12.3 8.5 9.9 85 1.2 SE 20 32 11 17 1001.0 1001.1 4.2
14/05:30pm 12.7 8.1 9.7 82 1.5 SE 24 32 13 17 1000.7 1000.8 4.2
14/05:00pm 12.9 8.0 10.1 83 1.5 SE 26 37 14 20 1000.5 1000.6 4.2
14/04:30pm 13.1 8.6 10.1 82 1.6 SE 24 35 13 19 1000.3 1000.4 4.2
14/04:00pm 13.1 9.1 10.3 83 1.5 SSE 22 32 12 17 1000.4 1000.5 4.2
14/03:30pm 12.8 8.7 10.0 83 1.4 SE 22 28 12 15 1000.6 1000.7 4.2
14/03:00pm 13.1 7.9 10.1 82 1.6 SE 28 39 15 21 1000.7 1000.8 3.8
14/02:30pm 13.3 9.0 10.7 84 1.4 SE 24 32 13 17 1000.7 1000.8 3.8
14/02:00pm 13.8 9.7 10.0 78 2.0 SE 22 32 12 17 1000.9 1001.0 3.8
14/01:30pm 14.0 10.6 10.6 80 1.8 SE 19 24 10 13 1001.1 1001.2 3.8
14/01:00pm 14.2 10.6 10.6 79 1.9 ESE 20 28 11 15 1001.6 1001.7 3.8
14/12:30pm 13.5 9.6 10.9 84 1.4 SE 22 32 12 17 1002.1 1002.2 3.8
14/12:00pm 13.3 10.0 11.5 89 1.0 SE 20 28 11 15 1002.3 1002.4 3.8
14/11:30am 12.6 8.8 11.0 90 0.8 SSE 22 30 12 16 1002.1 1002.2 3.8
14/11:00am 12.4 8.3 11.3 93 0.6 SSE 24 35 13 19 1002.3 1002.4 3.8
14/10:30am 11.9 7.9 10.6 92 0.7 S 22 30 12 16 1002.3 1002.4 3.6
14/10:00am 11.8 8.0 11.3 97 0.3 SE 22 35 12 19 1002.7 1002.8 3.6
14/09:30am 11.6 4.6 11.3 98 0.2 SSE 39 61 21 33 1002.7 1002.8 2.4
14/09:00am 11.8 3.4 11.2 96 0.3 S 46 65 25 35 1002.5 1002.6 19.0
14/08:30am 11.6 2.8 11.0 96 0.3 SSE 48 69 26 37 1003.3 1003.4 17.6
14/08:00am 11.6 2.0 10.8 95 0.4 S 52 76 28 41 1003.7 1003.8 16.0
14/07:30am 11.3 2.0 10.5 95 0.4 SSE 50 72 27 39 1004.0 1004.1 15.0
14/07:00am 11.2 1.9 10.4 95 0.4 S 50 76 27 41 1004.3 1004.4 13.6
14/06:30am 11.3 2.7 10.4 94 0.5 SSE 46 70 25 38 1004.8 1004.9 11.6
14/06:00am 11.2 3.0 10.3 94 0.5 SSE 44 70 24 38 1005.4 1005.5 10.6
14/05:30am 11.1 2.9 10.5 96 0.3 SSE 44 69 24 37 1006.0 1006.1 9.0
14/05:00am 11.1 2.6 10.5 96 0.3 SSE 46 69 25 37 1006.6 1006.7 7.8
14/04:30am 11.1 2.8 10.2 94 0.5 SSE 44 65 24 35 1006.9 1007.0 6.6
14/04:00am 11.2 3.2 10.3 94 0.5 SSE 43 63 23 34 1007.4 1007.5 5.8
14/03:54am 11.2 3.1 10.1 93 0.6 SSE 43 63 23 34 1007.5 1007.6 5.8
14/03:30am 11.3 3.0 10.0 92 0.7 SSE 44 59 24 32 1008.0 1008.1 5.2
14/03:20am 11.3 3.6 10.0 92 0.7 SSE 41 59 22 32 1008.2 1008.3 5.0
14/03:00am 11.3 4.4 10.4 94 0.5 SSE 37 52 20 28 1008.7 1008.8 4.6
14/02:30am 11.2 4.0 10.4 95 0.4 SSE 39 54 21 29 1009.3 1009.4 3.8
14/02:00am 11.3 4.0 10.2 93 0.6 SSE 39 56 21 30 1009.8 1009.9 2.8
14/01:51am 11.3 4.4 10.2 93 0.6 SSE 37 56 20 30 1010.0 1010.1 2.6
14/01:30am 11.5 5.0 10.4 93 0.6 S 35 50 19 27 1010.6 1010.6 2.0
14/01:00am 11.5 5.0 10.2 92 0.7 SSE 35 50 19 27 1011.1 1011.1 1.8
14/12:34am 11.5 5.4 10.4 93 0.6 SSE 33 52 18 28 1011.6 1011.6 1.8
14/12:30am 11.5 5.4 10.4 93 0.6 SSE 33 48 18 26 1011.6 1011.6 1.8
14/12:10am 11.7 5.8 10.6 93 0.6 SSE 32 50 17 27 1011.8 1011.8 1.8
14/12:00am 11.6 6.1 10.7 94 0.5 S 30 41 16 22 1011.9 1011.9 1.8
 
Date/Time
EST
Temp
°C
App
Temp
°C
Dew
Point
°C
Rel
Hum
%
Delta-T
°C
Wind Press
QNH
hPa
Press
MSL
hPa
Rain since
9am
mm
Dir  Spd
km/h
Gust
km/h
Spd
kts
Gust
kts
13/11:30pm 11.8 6.7 10.7 93 0.6 S 28 39 15 21 1012.3 1012.3 1.8
13/11:00pm 11.7 7.4 10.9 95 0.4 S 24 32 13 17 1012.7 1012.8 1.6
13/10:30pm 11.7 7.4 10.6 93 0.6 S 24 33 13 18 1013.2 1013.3 0.2
13/10:00pm 11.9 8.3 10.5 91 0.7 S 20 28 11 15 1013.8 1013.9 0.2
13/09:30pm 11.9 8.2 10.3 90 0.8 S 20 32 11 17 1014.2 1014.3 0.0
13/09:00pm 11.7 8.1 9.9 89 0.9 SSW 19 32 10 17 1014.5 1014.6 0.0
13/08:30pm 11.7 8.5 9.8 88 1.0 SSW 17 26 9 14 1014.5 1014.6 0.0
13/08:00pm 11.6 9.5 9.9 89 0.9 S 11 17 6 9 1015.0 1015.1 0.0
13/07:30pm 11.6 8.8 9.9 89 0.9 SW 15 22 8 12 1015.1 1015.2 0.0
13/07:00pm 11.6 9.5 9.7 88 1.0 SSW 11 15 6 8 1015.4 1015.5 0.0
13/06:30pm 11.6 9.9 9.7 88 1.0 SSW 9 13 5 7 1015.4 1015.5 0.0
13/06:00pm 11.8 9.2 9.5 86 1.2 S 13 15 7 8 1015.3 1015.4 0.0
13/05:30pm 12.0 8.8 10.1 88 1.0 S 17 22 9 12 1015.3 1015.4 0.0
13/05:00pm 11.8 9.1 10.2 90 0.8 SSW 15 20 8 11 1015.4 1015.5 0.0
13/04:30pm 11.8 8.3 10.2 90 0.8 S 19 26 10 14 1015.4 1015.5 0.0
13/04:00pm 12.1 9.0 10.2 88 1.0 S 17 24 9 13 1015.6 1015.7 0.0
13/03:30pm 12.5 9.4 10.2 86 1.2 SSW 17 24 9 13 1015.8 1015.9 0.0
13/03:00pm 12.1 9.7 10.2 88 1.0 SE 13 17 7 9 1016.2 1016.3 0.0
13/02:30pm 12.9 9.7 9.9 82 1.5 SSE 17 22 9 12 1016.0 1016.1 0.0
13/02:00pm 13.2 11.5 9.8 80 1.7 SE 9 17 5 9 1015.9 1016.0 0.0
13/01:30pm 12.1 10.4 9.8 86 1.2 ENE 9 13 5 7 1016.4 1016.5 0.0
13/01:00pm 12.9 11.4 9.2 78 1.9 E 7 13 4 7 1016.7 1016.8 0.0
13/12:30pm 14.2 12.9 10.0 76 2.2 NE 7 11 4 6 1016.9 1017.0 0.0
13/12:00pm 12.9 12.1 9.5 80 1.7 N 4 7 2 4 1017.5 1017.6 0.0
13/11:30am 12.0 10.2 9.6 85 1.2 NE 9 11 5 6 1018.2 1018.3 0.0
13/11:00am 11.6 10.1 9.3 86 1.2 NNE 7 11 4 6 1018.5 1018.6 0.0

Other formats

Comma delimited format used in spreadsheet applications
http://www.bom.gov.au/fwo/IDT60801/IDT60801.94970.axf

JavaScript Object Notation format (JSON) in row-major order
http://www.bom.gov.au/fwo/IDT60801/IDT60801.94970.json

Data quality

Most of these data are generated automatically and are frequently updated. Quality checks on data are not normally performed. It is possible for incorrect values to appear. Refer to information at About Latest Weather Observations and please check the disclaimer before using these data.